Página principal
METAR-TAF:

METAR-TAF

Aeroportos :

Aeroporto Internacional Rei Abdulaziz

Jidá, Arábia Saudita

latitude: 21-42N, longitude: 039-11E, altura: 15 m

Observação actual do tempo

O boletim foi feito há 1 hora e 2 minutos, às 18:00 UTC
Vento 8 kt de norte
Temperatura 23°C
Humidade 44%
Pressão 1015 hPa
Visibilidade 10 km ou mais
sem nuvens abaixo de 1500 metros e sem cumulonimbus

METAR: OEJN 231800Z 01008KT CAVOK 23/10 Q1015 NOSIG

Hora: 22:02 (19:02 UTC)

Previsão

O boletim foi feito há 2 horas e 2 minutos, às 17:00 UTC
Previsão válida de 23 às 18 UTC a 24 às 24 UTC
Vento 8 kt de nor-nordeste
Visibilidade 10 km ou mais
sem nuvens abaixo de 1500 metros e sem cumulonimbus

TAF: OEJN 231700Z 2318/2424 03008KT CAVOK

Observações e previsões do tempo de mais de 4000 aeroportos (mensagens METAR e TAF).

As estações disponíveis são os pontos amarelos e vermelhos sobre o mapa.

Mova o rato sobre o mapa para ver o nome da estação.

Depois clique no ponto para visualizar as observações e previsões meteorológicas.

Para alterar o mapa : clique nos botões verdes com uma cruz preta para aumentar o zoom; no botão verde com uma pitada de zoom; ou nas setas verdes para mapas adjacentes.


METAR-TAF: